createdAt,value
2019-04-22T00:00:45.376Z,152.90
2019-04-22T00:01:43.672Z,143.90
2019-04-22T00:02:50.598Z,149.00
2019-04-22T00:03:52.486Z,139.20
2019-04-22T00:04:57.582Z,147.10
2019-04-22T00:06:06.626Z,146.50
2019-04-22T00:07:03.155Z,147.90
2019-04-22T00:08:08.539Z,145.40
2019-04-22T00:09:12.107Z,142.40
2019-04-22T00:10:16.222Z,145.10
2019-04-22T00:11:13.186Z,147.00
2019-04-22T00:12:14.079Z,136.60
2019-04-22T00:13:09.403Z,137.70
2019-04-22T00:14:08.506Z,142.30
2019-04-22T00:15:08.092Z,146.20
2019-04-22T00:16:08.930Z,142.10
2019-04-22T00:17:30.449Z,146.30
2019-04-22T00:18:16.458Z,143.80
2019-04-22T00:19:15.375Z,142.00
2019-04-22T00:20:10.210Z,139.30
2019-04-22T00:21:12.492Z,138.70
2019-04-22T00:22:15.305Z,146.60
2019-04-22T00:23:03.648Z,144.30
2019-04-22T00:24:12.030Z,141.30
2019-04-22T00:25:18.042Z,139.20
2019-04-22T00:26:08.697Z,137.70
2019-04-22T00:27:14.408Z,141.40
2019-04-22T00:28:08.563Z,145.90
2019-04-22T00:29:35.691Z,142.90
2019-04-22T00:30:13.753Z,138.30
2019-04-22T00:31:11.819Z,138.60
2019-04-22T00:32:05.013Z,144.50
2019-04-22T00:33:07.820Z,139.10
2019-04-22T00:34:06.195Z,144.50
2019-04-22T00:35:07.195Z,141.10
2019-04-22T00:36:08.755Z,141.60
2019-04-22T00:37:11.679Z,135.30
2019-04-22T00:38:11.180Z,141.80
2019-04-22T00:39:16.725Z,137.30
2019-04-22T00:40:09.100Z,139.70
2019-04-22T00:41:08.833Z,137.10
2019-04-22T00:42:10.035Z,142.60
2019-04-22T00:43:04.981Z,135.40
2019-04-22T00:44:17.822Z,140.70
2019-04-22T00:45:11.715Z,135.80
2019-04-22T00:46:10.961Z,146.80
2019-04-22T00:47:14.667Z,138.30
2019-04-22T00:48:17.842Z,145.30
2019-04-22T00:49:52.708Z,142.40
2019-04-22T00:50:26.764Z,135.30
2019-04-22T00:52:09.334Z,137.60
2019-04-22T00:53:08.977Z,141.20
2019-04-22T00:54:08.035Z,138.60
2019-04-22T00:55:12.966Z,144.40
2019-04-22T00:57:12.269Z,138.00
2019-04-22T00:58:10.043Z,140.10
2019-04-22T00:59:06.777Z,144.50
2019-04-22T01:00:13.021Z,135.40
2019-04-22T01:01:07.845Z,134.20
2019-04-22T01:02:18.507Z,140.10
2019-04-22T01:03:11.513Z,133.20
2019-04-22T01:04:16.260Z,136.10
2019-04-22T01:05:09.265Z,137.10
2019-04-22T01:06:09.733Z,135.20
2019-04-22T01:07:09.191Z,136.60
2019-04-22T01:08:15.158Z,135.90
2019-04-22T01:09:23.457Z,139.00
2019-04-22T01:10:12.694Z,135.30
2019-04-22T01:11:11.275Z,133.50
2019-04-22T01:12:07.023Z,135.80
2019-04-22T01:13:04.787Z,136.20
2019-04-22T01:14:09.236Z,134.70
2019-04-22T01:15:12.499Z,137.60
2019-04-22T01:16:13.922Z,140.20
2019-04-22T01:17:08.907Z,137.10
2019-04-22T01:18:05.416Z,139.40
2019-04-22T01:19:06.561Z,136.00
2019-04-22T01:20:25.826Z,135.40
2019-04-22T01:21:17.797Z,135.20
2019-04-22T01:22:06.818Z,132.80
2019-04-22T01:23:09.598Z,130.80
2019-04-22T01:24:02.723Z,133.40
2019-04-22T01:25:02.420Z,134.00
2019-04-22T01:26:00.785Z,135.80
2019-04-22T01:27:00.524Z,133.80
2019-04-22T01:27:58.279Z,134.60
2019-04-22T01:28:59.550Z,133.20
2019-04-22T01:29:59.798Z,136.80
2019-04-22T01:30:51.710Z,133.10
2019-04-22T01:31:45.642Z,132.60
2019-04-22T01:32:47.295Z,130.70
2019-04-22T01:33:48.388Z,137.90
2019-04-22T01:34:56.567Z,135.20
2019-04-22T01:36:06.396Z,133.60
2019-04-22T01:37:02.895Z,135.00
2019-04-22T01:38:01.686Z,135.90
2019-04-22T01:39:02.414Z,130.80
2019-04-22T01:40:10.898Z,135.50
2019-04-22T01:41:08.521Z,139.20
2019-04-22T01:42:06.066Z,134.50
2019-04-22T01:43:08.685Z,136.20
2019-04-22T01:44:16.518Z,140.30
2019-04-22T01:45:11.787Z,140.50
2019-04-22T01:46:12.678Z,137.90
2019-04-22T01:47:13.455Z,139.70
2019-04-22T01:48:10.471Z,147.80
2019-04-22T01:49:08.394Z,142.70
2019-04-22T01:50:06.307Z,139.60
2019-04-22T01:51:03.410Z,137.10
2019-04-22T01:52:11.483Z,143.10
2019-04-22T01:54:15.098Z,140.60
2019-04-22T01:56:05.965Z,136.10
2019-04-22T01:57:04.906Z,140.60
2019-04-22T01:58:09.011Z,135.00
2019-04-22T01:58:58.761Z,137.10
2019-04-22T02:00:00.401Z,140.80
2019-04-22T02:01:04.560Z,139.60
2019-04-22T02:02:14.367Z,135.20
2019-04-22T02:03:12.505Z,136.00
2019-04-22T02:04:10.120Z,138.10
2019-04-22T02:05:15.654Z,139.90
2019-04-22T02:06:06.934Z,143.70
2019-04-22T02:07:09.377Z,142.60
2019-04-22T02:08:14.590Z,137.90
2019-04-22T02:09:17.652Z,147.30
2019-04-22T02:10:11.140Z,149.10
2019-04-22T02:11:12.396Z,144.00
2019-04-22T02:13:10.078Z,150.00
2019-04-22T02:14:11.703Z,144.00
2019-04-22T02:15:12.018Z,151.40
2019-04-22T02:16:14.525Z,143.90
2019-04-22T02:17:09.192Z,148.30
2019-04-22T02:18:17.986Z,148.00
2019-04-22T02:19:11.687Z,143.80
2019-04-22T02:20:25.345Z,143.10
2019-04-22T02:21:09.396Z,144.40
2019-04-22T02:22:07.088Z,144.50
2019-04-22T02:23:30.329Z,142.70
2019-04-22T02:24:08.986Z,145.30
2019-04-22T02:25:09.355Z,148.50
2019-04-22T02:26:25.593Z,141.30
2019-04-22T02:27:12.362Z,143.50
2019-04-22T02:28:23.984Z,142.20
2019-04-22T02:29:06.643Z,147.00
2019-04-22T02:30:08.455Z,143.20
2019-04-22T02:32:19.646Z,145.20
2019-04-22T02:33:45.967Z,138.80
2019-04-22T02:35:41.217Z,147.10
2019-04-22T02:36:25.352Z,149.30
2019-04-22T02:37:13.368Z,143.60
2019-04-22T02:38:19.449Z,142.60
2019-04-22T02:39:12.136Z,141.70
2019-04-22T02:40:10.293Z,140.40
2019-04-22T02:41:22.965Z,145.60
2019-04-22T02:43:28.303Z,145.80
2019-04-22T02:45:10.047Z,141.90
2019-04-22T02:48:31.887Z,146.90
2019-04-22T02:51:16.815Z,139.10
2019-04-22T02:52:18.035Z,140.80
2019-04-22T02:53:24.802Z,142.00
2019-04-22T02:54:33.881Z,138.50
2019-04-22T02:55:24.642Z,132.60
2019-04-22T02:56:25.637Z,135.90
2019-04-22T02:57:28.050Z,132.20
2019-04-22T02:58:12.675Z,137.50
2019-04-22T03:01:24.829Z,125.80
2019-04-22T03:02:14.471Z,127.80
2019-04-22T03:03:20.526Z,126.80
2019-04-22T03:04:11.012Z,125.20
2019-04-22T03:05:24.107Z,129.60
2019-04-22T03:07:12.742Z,130.50
2019-04-22T03:08:14.925Z,125.20
2019-04-22T03:10:22.754Z,131.10
2019-04-22T03:12:25.190Z,131.60
2019-04-22T03:13:21.342Z,129.50
2019-04-22T03:15:09.529Z,124.40
2019-04-22T03:16:17.755Z,119.40
2019-04-22T03:18:19.478Z,110.80
2019-04-22T03:20:09.115Z,113.70
2019-04-22T03:21:16.129Z,112.50
2019-04-22T03:23:34.128Z,113.20
2019-04-22T03:25:42.768Z,119.00
2019-04-22T03:26:22.532Z,120.30
2019-04-22T03:27:17.179Z,118.70
2019-04-22T03:28:08.750Z,125.50
2019-04-22T03:29:28.767Z,123.40
2019-04-22T03:30:41.758Z,122.80
2019-04-22T03:31:21.340Z,121.60
2019-04-22T03:32:39.449Z,122.80
2019-04-22T03:34:55.417Z,127.90
2019-04-22T03:36:42.198Z,126.80
2019-04-22T03:38:18.268Z,119.80
2019-04-22T03:39:29.705Z,127.70
2019-04-22T03:42:17.585Z,130.50
2019-04-22T03:43:13.755Z,130.60
2019-04-22T03:44:23.534Z,132.80
2019-04-22T03:46:16.668Z,128.30
2019-04-22T03:47:16.155Z,132.50
2019-04-22T03:48:13.091Z,130.50
2019-04-22T03:50:25.475Z,134.70
2019-04-22T03:51:20.152Z,134.80
2019-04-22T03:54:29.579Z,137.10
2019-04-22T03:56:36.574Z,141.00
2019-04-22T03:57:36.956Z,135.20
2019-04-22T03:58:28.241Z,137.70
2019-04-22T03:59:29.095Z,137.00
2019-04-22T04:00:21.909Z,133.60
2019-04-22T04:01:21.805Z,137.40
2019-04-22T04:02:21.507Z,137.20
2019-04-22T04:05:26.434Z,138.40
2019-04-22T04:06:20.836Z,125.30
2019-04-22T04:08:14.579Z,131.20
2019-04-22T04:09:18.101Z,139.40
2019-04-22T04:10:25.879Z,131.90
2019-04-22T04:11:06.437Z,136.00
2019-04-22T04:12:28.281Z,136.80
2019-04-22T04:13:19.824Z,135.10
2019-04-22T04:14:18.158Z,135.60
2019-04-22T04:16:10.708Z,133.30
2019-04-22T04:17:26.136Z,134.70
2019-04-22T04:18:15.764Z,130.20
2019-04-22T04:19:27.815Z,127.60
2019-04-22T04:20:21.839Z,125.40
2019-04-22T04:22:21.817Z,134.40
2019-04-22T04:23:16.774Z,128.70
2019-04-22T04:26:33.491Z,137.30
2019-04-22T04:28:31.610Z,134.10
2019-04-22T04:29:26.058Z,128.70
2019-04-22T04:31:24.575Z,132.80
2019-04-22T04:32:25.118Z,138.10
2019-04-22T04:33:21.175Z,132.10
2019-04-22T04:34:28.329Z,125.30
2019-04-22T04:35:28.234Z,130.10
2019-04-22T04:36:11.546Z,136.30
2019-04-22T04:37:35.165Z,132.50
2019-04-22T04:38:08.196Z,133.10
2019-04-22T04:40:21.348Z,135.50
2019-04-22T04:41:23.117Z,136.40
2019-04-22T04:42:23.436Z,138.20
2019-04-22T04:43:16.128Z,133.30
2019-04-22T04:44:24.647Z,138.80
2019-04-22T04:46:24.392Z,139.10
2019-04-22T04:48:14.383Z,139.90
2019-04-22T04:50:12.171Z,140.00
2019-04-22T04:51:23.979Z,136.80
2019-04-22T04:52:30.912Z,138.00
2019-04-22T04:54:24.266Z,135.50
2019-04-22T04:57:16.469Z,136.60
2019-04-22T04:58:25.177Z,140.90
2019-04-22T05:00:10.848Z,138.60
2019-04-22T05:05:20.284Z,132.20
2019-04-22T05:06:12.646Z,132.50
2019-04-22T05:07:19.606Z,127.20
2019-04-22T05:08:19.830Z,129.40
2019-04-22T05:11:16.232Z,130.20
2019-04-22T05:14:09.406Z,131.00
2019-04-22T05:15:18.364Z,128.70
2019-04-22T05:16:25.363Z,129.70
2019-04-22T05:17:12.843Z,127.00
2019-04-22T05:18:14.898Z,126.90
2019-04-22T05:20:24.272Z,122.70
2019-04-22T05:21:14.531Z,121.40
2019-04-22T05:22:14.888Z,115.00
2019-04-22T05:23:11.956Z,125.40
2019-04-22T05:25:11.735Z,125.10
2019-04-22T05:26:16.585Z,124.00
2019-04-22T05:27:15.116Z,131.40
2019-04-22T05:28:06.835Z,129.20
2019-04-22T05:29:09.757Z,130.10
2019-04-22T05:30:27.912Z,132.50
2019-04-22T05:31:11.297Z,130.00
2019-04-22T05:33:07.365Z,128.50
2019-04-22T05:34:09.897Z,127.30
2019-04-22T05:35:06.888Z,126.40
2019-04-22T05:36:10.284Z,127.70
2019-04-22T05:37:07.359Z,129.10
2019-04-22T05:38:09.749Z,123.60
2019-04-22T05:39:09.438Z,125.40
2019-04-22T05:40:12.181Z,126.30
2019-04-22T05:41:02.657Z,121.50
2019-04-22T05:42:08.925Z,126.80
2019-04-22T05:43:09.388Z,130.40
2019-04-22T05:44:08.292Z,122.70
2019-04-22T05:45:10.148Z,125.90
2019-04-22T05:46:02.913Z,119.70
2019-04-22T05:47:08.087Z,120.50
2019-04-22T05:48:02.425Z,121.20
2019-04-22T05:49:06.045Z,124.50
2019-04-22T05:50:02.381Z,123.10
2019-04-22T05:51:04.444Z,121.90
2019-04-22T05:52:05.256Z,119.70
2019-04-22T05:53:03.174Z,122.10
2019-04-22T05:54:11.680Z,119.50
2019-04-22T05:55:10.937Z,122.60
2019-04-22T05:56:12.723Z,122.50
2019-04-22T05:57:11.982Z,120.60
2019-04-22T05:58:04.245Z,119.50
2019-04-22T05:59:07.374Z,123.40
2019-04-22T06:00:06.302Z,120.20
2019-04-22T06:01:30.244Z,125.10
2019-04-22T06:03:04.538Z,121.10
2019-04-22T06:04:11.566Z,123.20
2019-04-22T06:05:03.703Z,123.30
2019-04-22T06:06:10.401Z,126.80
2019-04-22T06:07:01.019Z,120.90
2019-04-22T06:08:06.664Z,124.30
2019-04-22T06:09:07.163Z,124.60
2019-04-22T06:10:15.871Z,128.00
2019-04-22T06:11:10.246Z,122.00
2019-04-22T06:11:59.171Z,131.30
2019-04-22T06:13:00.838Z,122.60
2019-04-22T06:14:01.903Z,130.00
2019-04-22T06:15:05.297Z,129.80
2019-04-22T06:16:04.708Z,125.80
2019-04-22T06:17:03.938Z,128.90
2019-04-22T06:18:25.576Z,132.10
2019-04-22T06:19:11.773Z,128.50
2019-04-22T06:20:04.242Z,134.30
2019-04-22T06:21:05.226Z,138.30
2019-04-22T06:22:06.881Z,135.30
2019-04-22T06:24:11.262Z,138.90
2019-04-22T06:25:09.884Z,139.70
2019-04-22T06:26:09.856Z,132.80
2019-04-22T06:27:14.537Z,130.90
2019-04-22T06:28:13.524Z,138.60
2019-04-22T06:29:13.304Z,132.60
2019-04-22T06:30:04.208Z,134.80
2019-04-22T06:31:12.269Z,139.80
2019-04-22T06:33:11.291Z,141.90
2019-04-22T06:34:10.551Z,147.30
2019-04-22T06:35:15.030Z,138.50
2019-04-22T06:37:08.221Z,140.40
2019-04-22T06:38:31.592Z,147.20
2019-04-22T06:39:10.487Z,155.00
2019-04-22T06:40:11.026Z,146.70
2019-04-22T06:41:09.292Z,148.20
2019-04-22T06:42:11.436Z,150.20
2019-04-22T06:44:14.467Z,151.20
2019-04-22T06:45:07.311Z,150.70
2019-04-22T06:46:08.454Z,156.00
2019-04-22T06:47:10.604Z,144.90
2019-04-22T06:48:08.335Z,152.50
2019-04-22T06:49:11.199Z,149.00
2019-04-22T06:50:07.778Z,150.30
2019-04-22T06:51:01.753Z,154.70
2019-04-22T06:52:08.115Z,153.60
2019-04-22T06:53:06.460Z,155.80
2019-04-22T06:54:08.904Z,152.80
2019-04-22T06:55:13.156Z,157.70
2019-04-22T06:56:05.206Z,162.20
2019-04-22T06:58:04.545Z,165.30
2019-04-22T06:59:08.506Z,161.20
2019-04-22T07:00:05.653Z,159.60
2019-04-22T07:01:09.558Z,165.30
2019-04-22T07:02:10.070Z,157.80
2019-04-22T07:03:28.767Z,164.00
2019-04-22T07:04:03.572Z,163.80
2019-04-22T07:05:00.998Z,165.80
2019-04-22T07:06:09.508Z,161.00
2019-04-22T07:07:08.088Z,162.00
2019-04-22T07:08:16.069Z,168.50
2019-04-22T07:09:20.589Z,171.60
2019-04-22T07:10:15.079Z,169.10
2019-04-22T07:11:04.637Z,176.20
2019-04-22T07:12:10.048Z,171.10
2019-04-22T07:13:01.464Z,172.50
2019-04-22T07:15:16.585Z,171.80
2019-04-22T07:16:03.928Z,166.10
2019-04-22T07:17:03.629Z,172.00
2019-04-22T07:20:04.145Z,175.70
2019-04-22T07:21:01.243Z,179.80
2019-04-22T07:22:03.397Z,186.30
2019-04-22T07:23:07.980Z,188.30
2019-04-22T07:24:21.475Z,184.20
2019-04-22T07:25:06.596Z,178.70
2019-04-22T07:26:04.299Z,174.00
2019-04-22T07:27:08.593Z,174.00
2019-04-22T07:28:08.321Z,187.40
2019-04-22T07:29:06.124Z,189.40
2019-04-22T07:30:08.992Z,191.50
2019-04-22T07:31:04.001Z,189.10
2019-04-22T07:33:19.893Z,175.90
2019-04-22T07:34:13.694Z,165.60
2019-04-22T07:35:08.594Z,162.10
2019-04-22T07:37:22.669Z,169.30
2019-04-22T07:38:04.408Z,162.70
2019-04-22T07:39:05.743Z,165.70
2019-04-22T07:40:02.440Z,159.90
2019-04-22T07:41:00.547Z,165.50
2019-04-22T07:42:06.596Z,158.60
2019-04-22T07:43:08.272Z,150.90
2019-04-22T07:45:03.889Z,151.50
2019-04-22T07:46:05.129Z,150.80
2019-04-22T07:47:15.315Z,152.40
2019-04-22T07:48:13.040Z,150.80
2019-04-22T07:49:05.233Z,143.60
2019-04-22T07:50:09.755Z,149.60
2019-04-22T07:52:06.117Z,142.70
2019-04-22T07:53:08.458Z,133.90
2019-04-22T07:54:03.140Z,138.70
2019-04-22T07:55:01.041Z,128.10
2019-04-22T07:56:05.172Z,132.80
2019-04-22T07:57:11.710Z,128.90
2019-04-22T07:58:10.202Z,130.10
2019-04-22T07:59:03.984Z,127.80
2019-04-22T08:00:10.601Z,135.40
2019-04-22T08:01:12.138Z,128.50
2019-04-22T08:02:04.732Z,122.40
2019-04-22T08:03:06.622Z,120.60
2019-04-22T08:04:22.879Z,126.50
2019-04-22T08:05:20.975Z,120.00
2019-04-22T08:07:05.169Z,120.20
2019-04-22T08:08:07.228Z,116.50
2019-04-22T08:09:12.283Z,123.30
2019-04-22T08:10:17.202Z,117.30
2019-04-22T08:11:11.209Z,117.60
2019-04-22T08:11:59.483Z,114.70
2019-04-22T08:13:05.406Z,112.20
2019-04-22T08:14:00.289Z,112.30
2019-04-22T08:15:06.059Z,117.50
2019-04-22T08:16:02.678Z,116.80
2019-04-22T08:17:14.164Z,113.30
2019-04-22T08:18:04.893Z,111.50
2019-04-22T08:19:13.453Z,107.70
2019-04-22T08:21:04.732Z,110.00
2019-04-22T08:22:02.732Z,106.50
2019-04-22T08:24:01.266Z,101.20
2019-04-22T08:25:01.879Z,122.20
2019-04-22T08:26:00.964Z,96.90
2019-04-22T08:27:04.853Z,99.20
2019-04-22T08:28:03.044Z,94.90
2019-04-22T08:29:06.379Z,140.20
2019-04-22T08:30:06.438Z,87.20
2019-04-22T08:31:09.849Z,85.70
2019-04-22T08:31:59.107Z,87.30
2019-04-22T08:33:11.157Z,83.50
2019-04-22T08:34:08.285Z,85.40
2019-04-22T08:35:04.663Z,92.60
2019-04-22T08:37:35.694Z,87.20
2019-04-22T08:39:07.989Z,86.60
2019-04-22T08:40:07.583Z,84.40
2019-04-22T08:41:06.552Z,82.30
2019-04-22T08:42:05.015Z,78.40
2019-04-22T08:44:18.614Z,118.50
2019-04-22T08:45:09.253Z,77.90
2019-04-22T08:46:06.188Z,74.70
2019-04-22T08:47:11.509Z,83.70
2019-04-22T08:48:00.944Z,75.60
2019-04-22T08:49:00.748Z,71.00
2019-04-22T08:50:07.705Z,75.40
2019-04-22T08:51:00.774Z,72.90
2019-04-22T08:53:08.123Z,70.00
2019-04-22T08:54:09.049Z,75.60
2019-04-22T08:55:08.593Z,69.20
2019-04-22T08:56:16.142Z,71.40
2019-04-22T08:57:06.788Z,86.40
2019-04-22T08:59:10.881Z,62.10
2019-04-22T09:00:02.463Z,61.70
2019-04-22T09:01:06.508Z,62.70
2019-04-22T09:02:09.340Z,77.80
2019-04-22T09:03:04.436Z,66.70
2019-04-22T09:04:04.019Z,62.60
2019-04-22T09:05:01.527Z,68.80
2019-04-22T09:06:04.473Z,64.40
2019-04-22T09:07:12.409Z,65.70
2019-04-22T09:08:09.497Z,68.60
2019-04-22T09:09:06.449Z,69.50
2019-04-22T09:10:02.152Z,102.80
2019-04-22T09:11:03.627Z,63.40
2019-04-22T09:13:13.975Z,62.70
2019-04-22T09:14:06.523Z,58.70
2019-04-22T09:14:55.352Z,63.50
2019-04-22T09:16:02.474Z,74.60
2019-04-22T09:17:05.688Z,71.80
2019-04-22T09:18:11.124Z,71.40
2019-04-22T09:20:00.399Z,64.70
2019-04-22T09:21:15.288Z,65.60
2019-04-22T09:22:05.205Z,75.20
2019-04-22T09:24:05.273Z,97.40
2019-04-22T09:24:57.377Z,76.60
2019-04-22T09:26:01.397Z,63.70
2019-04-22T09:27:05.900Z,68.10
2019-04-22T09:28:02.790Z,71.20
2019-04-22T09:29:06.501Z,65.60
2019-04-22T09:30:04.781Z,69.30
2019-04-22T09:31:06.696Z,75.40
2019-04-22T09:32:09.524Z,59.10
2019-04-22T09:33:11.100Z,55.40
2019-04-22T09:33:59.088Z,56.50
2019-04-22T09:35:03.367Z,55.10
2019-04-22T09:36:13.020Z,65.70
2019-04-22T09:38:23.745Z,60.00
2019-04-22T09:39:02.909Z,55.60
2019-04-22T09:40:09.234Z,59.80
2019-04-22T09:40:58.475Z,65.40
2019-04-22T09:42:07.830Z,69.60
2019-04-22T09:43:04.965Z,60.50
2019-04-22T09:44:02.080Z,56.60
2019-04-22T09:44:59.230Z,55.40
2019-04-22T09:45:57.424Z,58.00
2019-04-22T09:47:00.233Z,62.10
2019-04-22T09:48:09.098Z,52.70
2019-04-22T09:49:09.711Z,81.10
2019-04-22T09:50:03.383Z,54.70
2019-04-22T09:51:03.773Z,75.80
2019-04-22T09:52:08.016Z,51.80
2019-04-22T09:53:02.073Z,50.00
2019-04-22T09:54:08.990Z,49.70
2019-04-22T09:55:07.510Z,48.70
2019-04-22T09:56:03.999Z,55.20
2019-04-22T09:57:01.890Z,61.70
2019-04-22T09:58:02.788Z,48.00
2019-04-22T09:59:02.365Z,49.50
2019-04-22T10:00:11.029Z,49.50
2019-04-22T10:01:09.418Z,51.10
2019-04-22T10:04:01.012Z,46.70
2019-04-22T10:05:07.756Z,50.70
2019-04-22T10:06:09.879Z,51.40
2019-04-22T10:06:59.734Z,47.70
2019-04-22T10:08:13.366Z,47.40
2019-04-22T10:11:06.009Z,53.10
2019-04-22T10:12:02.800Z,55.20
2019-04-22T10:13:10.438Z,52.50
2019-04-22T10:14:59.945Z,53.00
2019-04-22T10:16:03.117Z,58.60
2019-04-22T10:17:04.271Z,60.00
2019-04-22T10:18:02.539Z,62.30
2019-04-22T10:19:04.708Z,138.00
2019-04-22T10:20:03.335Z,73.50
2019-04-22T10:21:00.624Z,52.70
2019-04-22T10:23:05.878Z,80.90
2019-04-22T10:24:03.446Z,48.90
2019-04-22T10:25:07.220Z,48.00
2019-04-22T10:26:04.979Z,51.80
2019-04-22T10:27:02.160Z,56.60
2019-04-22T10:28:09.007Z,50.20
2019-04-22T10:29:08.556Z,46.20
2019-04-22T10:31:05.400Z,42.90
2019-04-22T10:32:00.798Z,42.20
2019-04-22T10:33:00.843Z,48.40
2019-04-22T10:33:53.289Z,49.80
2019-04-22T10:34:44.466Z,46.60
2019-04-22T10:35:37.308Z,48.30
2019-04-22T10:36:37.710Z,47.00
2019-04-22T10:37:36.591Z,42.50
2019-04-22T10:38:36.698Z,47.50
2019-04-22T10:39:43.923Z,45.50
2019-04-22T10:40:36.766Z,44.60
2019-04-22T10:41:36.645Z,45.00
2019-04-22T10:42:35.761Z,48.10
2019-04-22T10:43:36.985Z,45.40
2019-04-22T10:44:37.205Z,45.90
2019-04-22T10:45:36.233Z,57.40
2019-04-22T10:46:36.030Z,49.00
2019-04-22T10:47:36.016Z,46.10
2019-04-22T10:48:36.590Z,50.20
2019-04-22T10:49:36.158Z,48.80
2019-04-22T10:50:36.343Z,48.30
2019-04-22T10:51:36.879Z,51.60
2019-04-22T10:52:35.646Z,49.50
2019-04-22T10:53:35.700Z,50.70
2019-04-22T10:54:35.760Z,56.00
2019-04-22T10:55:37.189Z,48.80
2019-04-22T10:56:36.862Z,52.20
2019-04-22T10:57:35.999Z,50.90
2019-04-22T10:58:35.674Z,49.50
2019-04-22T10:59:36.416Z,82.40
2019-04-22T11:00:35.609Z,68.80
2019-04-22T11:01:38.431Z,68.50
2019-04-22T11:02:35.507Z,157.30
2019-04-22T11:03:37.197Z,50.70
2019-04-22T11:04:36.407Z,49.90
2019-04-22T11:05:35.488Z,49.50
2019-04-22T11:06:40.942Z,45.80
2019-04-22T11:07:43.986Z,47.30
2019-04-22T11:08:44.535Z,52.80
2019-04-22T11:09:47.648Z,50.20
2019-04-22T11:10:50.564Z,51.90
2019-04-22T11:11:46.613Z,47.30
2019-04-22T11:12:38.011Z,47.50
2019-04-22T11:13:35.864Z,47.10
2019-04-22T11:14:36.876Z,46.60
2019-04-22T11:15:35.371Z,45.20
2019-04-22T11:16:35.353Z,52.90
2019-04-22T11:17:35.605Z,49.70
2019-04-22T11:18:35.783Z,45.60
2019-04-22T11:19:35.423Z,45.60
2019-04-22T11:20:35.788Z,44.80
2019-04-22T11:21:35.980Z,48.80
2019-04-22T11:22:37.003Z,45.30
2019-04-22T11:23:36.434Z,48.80
2019-04-22T11:24:36.853Z,44.10
2019-04-22T11:25:36.149Z,48.10
2019-04-22T11:26:36.784Z,44.10
2019-04-22T11:27:35.259Z,46.50
2019-04-22T11:28:35.877Z,46.00
2019-04-22T11:29:35.395Z,48.20
2019-04-22T11:30:36.708Z,51.90
2019-04-22T11:31:36.457Z,51.00
2019-04-22T11:32:36.235Z,45.10
2019-04-22T11:33:36.381Z,45.40
2019-04-22T11:34:35.456Z,46.80
2019-04-22T11:35:35.147Z,44.40
2019-04-22T11:36:36.948Z,43.60
2019-04-22T11:37:36.594Z,45.40
2019-04-22T11:38:38.973Z,46.90
2019-04-22T11:39:36.679Z,48.90
2019-04-22T11:40:40.319Z,40.50
2019-04-22T11:41:36.253Z,45.40
2019-04-22T11:42:36.351Z,48.80
2019-04-22T11:43:36.236Z,51.30
2019-04-22T11:44:35.337Z,43.60
2019-04-22T11:45:35.431Z,44.10
2019-04-22T11:46:35.598Z,47.70
2019-04-22T11:47:35.365Z,44.20
2019-04-22T11:48:35.949Z,45.70
2019-04-22T11:49:36.200Z,50.80
2019-04-22T11:50:35.750Z,49.60
2019-04-22T11:51:36.084Z,49.20
2019-04-22T11:52:35.098Z,45.80
2019-04-22T11:53:34.972Z,47.10
2019-04-22T11:54:34.970Z,47.80
2019-04-22T11:55:35.069Z,47.00
2019-04-22T11:56:35.023Z,51.40
2019-04-22T11:57:35.038Z,49.40
2019-04-22T11:58:35.429Z,44.10
2019-04-22T11:59:36.318Z,46.90
2019-04-22T12:00:35.119Z,48.00
2019-04-22T12:01:35.052Z,44.10
2019-04-22T12:02:34.871Z,45.90
2019-04-22T12:03:35.811Z,44.40
2019-04-22T12:04:35.891Z,49.00
2019-04-22T12:05:34.834Z,55.00
2019-04-22T12:06:35.991Z,48.90
2019-04-22T12:07:36.600Z,45.80
2019-04-22T12:08:35.736Z,50.40
2019-04-22T12:09:35.298Z,45.20
2019-04-22T12:10:43.017Z,47.70
2019-04-22T12:11:36.523Z,44.70
2019-04-22T12:12:36.252Z,47.60
2019-04-22T12:13:35.783Z,46.30
2019-04-22T12:14:36.147Z,48.10
2019-04-22T12:15:35.174Z,44.30
2019-04-22T12:16:35.091Z,46.90
2019-04-22T12:17:36.062Z,46.70
2019-04-22T12:18:35.382Z,48.20
2019-04-22T12:19:35.261Z,49.50
2019-04-22T12:20:35.062Z,48.00
2019-04-22T12:21:35.206Z,49.20
2019-04-22T12:22:35.745Z,48.80
2019-04-22T12:23:34.917Z,57.20
2019-04-22T12:24:36.258Z,44.70
2019-04-22T12:25:47.607Z,44.90
2019-04-22T12:26:35.635Z,47.20
2019-04-22T12:27:35.068Z,46.90
2019-04-22T12:28:35.155Z,50.90
2019-04-22T12:29:35.130Z,47.70
2019-04-22T12:30:35.254Z,46.50
2019-04-22T12:31:35.749Z,52.10
2019-04-22T12:32:35.678Z,51.50
2019-04-22T12:33:35.053Z,46.70
2019-04-22T12:34:35.382Z,52.60
2019-04-22T12:35:34.685Z,52.20
2019-04-22T12:36:34.525Z,46.50
2019-04-22T12:37:43.955Z,50.60
2019-04-22T12:38:35.731Z,47.60
2019-04-22T12:39:35.708Z,46.60
2019-04-22T12:40:43.364Z,60.70
2019-04-22T12:41:35.956Z,49.60
2019-04-22T12:42:35.373Z,55.60
2019-04-22T12:43:35.472Z,55.50
2019-04-22T12:44:37.402Z,36.50
2019-04-22T12:45:34.424Z,40.30
2019-04-22T12:46:34.424Z,41.90
2019-04-22T12:47:35.755Z,40.00
2019-04-22T12:48:35.094Z,39.00
2019-04-22T12:49:37.410Z,37.50
2019-04-22T12:50:40.258Z,41.80
2019-04-22T12:51:36.674Z,41.70
2019-04-22T12:52:43.609Z,38.70
2019-04-22T12:53:36.061Z,39.00
2019-04-22T12:54:35.154Z,39.80
2019-04-22T12:55:34.448Z,41.00
2019-04-22T12:56:35.471Z,37.00
2019-04-22T12:57:34.738Z,41.10
2019-04-22T12:58:35.658Z,35.50
2019-04-22T12:59:35.339Z,34.30
2019-04-22T13:00:34.427Z,33.60
2019-04-22T13:01:35.104Z,35.40
2019-04-22T13:02:34.518Z,31.30
2019-04-22T13:03:34.247Z,35.20
2019-04-22T13:04:34.319Z,34.00
2019-04-22T13:05:35.270Z,30.00
2019-04-22T13:06:35.432Z,32.70
2019-04-22T13:07:35.639Z,33.30
2019-04-22T13:08:34.168Z,30.00
2019-04-22T13:09:34.170Z,29.40
2019-04-22T13:10:46.411Z,31.80
2019-04-22T13:11:36.923Z,33.90
2019-04-22T13:12:34.974Z,31.50
2019-04-22T13:13:34.618Z,31.40
2019-04-22T13:14:34.892Z,31.70
2019-04-22T13:15:35.083Z,30.60
2019-04-22T13:16:35.291Z,31.80
2019-04-22T13:17:34.064Z,34.90
2019-04-22T13:18:42.061Z,31.10
2019-04-22T13:19:36.143Z,34.10
2019-04-22T13:20:34.510Z,28.80
2019-04-22T13:21:34.036Z,28.70
2019-04-22T13:22:34.952Z,27.70
2019-04-22T13:23:34.107Z,29.50
2019-04-22T13:24:34.186Z,32.60
2019-04-22T13:25:34.737Z,29.00
2019-04-22T13:26:33.969Z,30.40
2019-04-22T13:27:35.113Z,27.70
2019-04-22T13:28:34.651Z,32.50
2019-04-22T13:29:34.966Z,29.50
2019-04-22T13:30:34.653Z,30.70
2019-04-22T13:31:34.919Z,45.00
2019-04-22T13:32:34.732Z,32.30
2019-04-22T13:33:34.697Z,31.40
2019-04-22T13:34:40.416Z,29.70
2019-04-22T13:35:36.195Z,29.30
2019-04-22T13:36:34.609Z,27.80
2019-04-22T13:37:34.993Z,29.80
2019-04-22T13:38:35.320Z,35.40
2019-04-22T13:39:34.839Z,29.40
2019-04-22T13:40:34.877Z,28.20
2019-04-22T13:41:41.778Z,30.50
2019-04-22T13:42:35.490Z,27.50
2019-04-22T13:43:34.755Z,31.40
2019-04-22T13:44:33.807Z,30.20
2019-04-22T13:45:34.003Z,32.20
2019-04-22T13:46:35.473Z,32.40
2019-04-22T13:47:50.598Z,29.50
2019-04-22T13:49:02.058Z,32.70
2019-04-22T13:52:15.104Z,31.30
2019-04-22T13:53:05.941Z,30.60
2019-04-22T13:54:01.902Z,28.10
2019-04-22T13:54:59.707Z,31.50
2019-04-22T13:55:56.443Z,30.50
2019-04-22T13:56:55.497Z,31.60
2019-04-22T13:57:52.397Z,32.80
2019-04-22T13:58:48.434Z,31.20
2019-04-22T13:59:40.906Z,30.10
2019-04-22T14:00:34.656Z,33.30
2019-04-22T14:01:34.746Z,29.40
2019-04-22T14:02:34.761Z,31.10
2019-04-22T14:03:35.634Z,29.90
2019-04-22T14:04:34.722Z,31.20
2019-04-22T14:05:34.678Z,31.70
2019-04-22T14:06:34.728Z,28.90
2019-04-22T14:07:34.757Z,31.60
2019-04-22T14:08:33.521Z,29.60
2019-04-22T14:09:33.944Z,35.30
2019-04-22T14:10:34.446Z,31.30
2019-04-22T14:11:43.351Z,28.40
2019-04-22T14:12:34.922Z,30.20
2019-04-22T14:13:34.213Z,29.30